sensor_id;sensor_type;location;lat;lon;timestamp;temperature;humidity
25918;DHT22;13899;51.174;4.456;2023-06-14T00:00:10;23.00;66.20
25918;DHT22;13899;51.174;4.456;2023-06-14T00:02:38;23.00;67.70
25918;DHT22;13899;51.174;4.456;2023-06-14T00:05:05;22.90;68.80
25918;DHT22;13899;51.174;4.456;2023-06-14T00:07:34;22.80;70.30
25918;DHT22;13899;51.174;4.456;2023-06-14T00:10:00;22.70;70.20
25918;DHT22;13899;51.174;4.456;2023-06-14T00:12:25;22.80;70.30
25918;DHT22;13899;51.174;4.456;2023-06-14T00:14:51;22.60;70.70
25918;DHT22;13899;51.174;4.456;2023-06-14T00:17:16;22.60;71.40
25918;DHT22;13899;51.174;4.456;2023-06-14T00:19:42;22.60;71.80
25918;DHT22;13899;51.174;4.456;2023-06-14T00:22:08;22.70;71.70
25918;DHT22;13899;51.174;4.456;2023-06-14T00:24:33;22.60;72.50
25918;DHT22;13899;51.174;4.456;2023-06-14T00:26:59;22.60;72.70
25918;DHT22;13899;51.174;4.456;2023-06-14T00:29:24;22.60;73.60
25918;DHT22;13899;51.174;4.456;2023-06-14T00:31:50;22.40;73.20
25918;DHT22;13899;51.174;4.456;2023-06-14T00:34:15;22.40;73.50
25918;DHT22;13899;51.174;4.456;2023-06-14T00:36:41;22.30;74.70
25918;DHT22;13899;51.174;4.456;2023-06-14T00:39:06;22.30;75.30
25918;DHT22;13899;51.174;4.456;2023-06-14T00:41:32;22.30;75.10
25918;DHT22;13899;51.174;4.456;2023-06-14T00:43:57;22.20;74.90
25918;DHT22;13899;51.174;4.456;2023-06-14T00:46:23;22.20;75.30
25918;DHT22;13899;51.174;4.456;2023-06-14T00:48:49;22.10;74.80
25918;DHT22;13899;51.174;4.456;2023-06-14T00:51:15;22.20;75.00
25918;DHT22;13899;51.174;4.456;2023-06-14T00:53:40;22.10;75.30
25918;DHT22;13899;51.174;4.456;2023-06-14T00:56:11;22.00;76.00
25918;DHT22;13899;51.174;4.456;2023-06-14T00:58:38;22.00;75.80
25918;DHT22;13899;51.174;4.456;2023-06-14T01:01:04;22.00;76.00
25918;DHT22;13899;51.174;4.456;2023-06-14T01:03:29;21.90;75.10
25918;DHT22;13899;51.174;4.456;2023-06-14T01:06:11;21.90;76.00
25918;DHT22;13899;51.174;4.456;2023-06-14T01:08:41;21.90;76.00
25918;DHT22;13899;51.174;4.456;2023-06-14T01:11:16;21.90;75.70
25918;DHT22;13899;51.174;4.456;2023-06-14T01:13:45;21.90;75.30
25918;DHT22;13899;51.174;4.456;2023-06-14T01:16:11;21.80;75.00
25918;DHT22;13899;51.174;4.456;2023-06-14T01:18:37;21.90;74.10
25918;DHT22;13899;51.174;4.456;2023-06-14T01:21:02;21.80;74.10
25918;DHT22;13899;51.174;4.456;2023-06-14T01:23:31;21.90;74.50
25918;DHT22;13899;51.174;4.456;2023-06-14T01:25:57;21.90;74.30
25918;DHT22;13899;51.174;4.456;2023-06-14T01:28:23;21.90;74.20
25918;DHT22;13899;51.174;4.456;2023-06-14T01:30:49;21.80;74.00
25918;DHT22;13899;51.174;4.456;2023-06-14T01:33:21;21.70;74.60
25918;DHT22;13899;51.174;4.456;2023-06-14T01:35:47;21.60;74.60
25918;DHT22;13899;51.174;4.456;2023-06-14T01:38:13;21.60;74.70
25918;DHT22;13899;51.174;4.456;2023-06-14T01:40:40;21.60;75.20
25918;DHT22;13899;51.174;4.456;2023-06-14T01:43:06;21.50;75.60
25918;DHT22;13899;51.174;4.456;2023-06-14T01:45:32;21.50;75.50
25918;DHT22;13899;51.174;4.456;2023-06-14T01:47:58;21.40;75.50
25918;DHT22;13899;51.174;4.456;2023-06-14T01:50:27;21.40;75.00
25918;DHT22;13899;51.174;4.456;2023-06-14T01:52:53;21.40;75.10
25918;DHT22;13899;51.174;4.456;2023-06-14T01:55:18;21.30;75.00
25918;DHT22;13899;51.174;4.456;2023-06-14T01:57:47;21.20;74.60
25918;DHT22;13899;51.174;4.456;2023-06-14T02:00:13;21.20;75.30
25918;DHT22;13899;51.174;4.456;2023-06-14T02:02:40;21.20;73.90
25918;DHT22;13899;51.174;4.456;2023-06-14T02:05:05;21.20;75.10
25918;DHT22;13899;51.174;4.456;2023-06-14T02:07:31;21.10;75.80
25918;DHT22;13899;51.174;4.456;2023-06-14T02:09:56;21.30;74.10
25918;DHT22;13899;51.174;4.456;2023-06-14T02:12:22;21.20;73.40
25918;DHT22;13899;51.174;4.456;2023-06-14T02:14:47;21.30;73.20
25918;DHT22;13899;51.174;4.456;2023-06-14T02:17:14;21.30;73.10
25918;DHT22;13899;51.174;4.456;2023-06-14T02:19:40;21.30;73.20
25918;DHT22;13899;51.174;4.456;2023-06-14T02:22:06;21.30;72.80
25918;DHT22;13899;51.174;4.456;2023-06-14T02:24:32;21.30;72.50
25918;DHT22;13899;51.174;4.456;2023-06-14T02:26:57;21.20;72.10
25918;DHT22;13899;51.174;4.456;2023-06-14T02:29:23;21.20;73.20
25918;DHT22;13899;51.174;4.456;2023-06-14T02:31:48;21.20;73.70
25918;DHT22;13899;51.174;4.456;2023-06-14T02:34:15;21.10;73.80
25918;DHT22;13899;51.174;4.456;2023-06-14T02:36:42;21.00;74.80
25918;DHT22;13899;51.174;4.456;2023-06-14T02:39:08;21.00;74.20
25918;DHT22;13899;51.174;4.456;2023-06-14T02:41:34;20.90;75.10
25918;DHT22;13899;51.174;4.456;2023-06-14T02:44:00;20.90;74.20
25918;DHT22;13899;51.174;4.456;2023-06-14T02:46:25;20.90;74.30
25918;DHT22;13899;51.174;4.456;2023-06-14T02:48:51;20.90;73.90
25918;DHT22;13899;51.174;4.456;2023-06-14T02:51:16;20.80;74.70
25918;DHT22;13899;51.174;4.456;2023-06-14T02:53:42;20.90;74.50
25918;DHT22;13899;51.174;4.456;2023-06-14T02:56:09;21.00;74.20
25918;DHT22;13899;51.174;4.456;2023-06-14T02:58:35;20.90;74.20
25918;DHT22;13899;51.174;4.456;2023-06-14T03:01:01;20.90;74.00
25918;DHT22;13899;51.174;4.456;2023-06-14T03:03:29;20.90;74.10
25918;DHT22;13899;51.174;4.456;2023-06-14T03:05:55;20.90;74.20
25918;DHT22;13899;51.174;4.456;2023-06-14T03:08:20;20.90;73.50
25918;DHT22;13899;51.174;4.456;2023-06-14T03:10:46;20.90;73.20
25918;DHT22;13899;51.174;4.456;2023-06-14T03:13:12;21.00;72.80
25918;DHT22;13899;51.174;4.456;2023-06-14T03:15:38;21.00;72.30
25918;DHT22;13899;51.174;4.456;2023-06-14T03:18:09;21.00;72.00
25918;DHT22;13899;51.174;4.456;2023-06-14T03:20:35;21.10;71.80
25918;DHT22;13899;51.174;4.456;2023-06-14T03:23:01;21.00;71.20
25918;DHT22;13899;51.174;4.456;2023-06-14T03:25:27;21.00;71.00
25918;DHT22;13899;51.174;4.456;2023-06-14T03:27:55;21.00;71.40
25918;DHT22;13899;51.174;4.456;2023-06-14T03:30:20;21.00;71.00
25918;DHT22;13899;51.174;4.456;2023-06-14T03:32:46;20.90;71.30
25918;DHT22;13899;51.174;4.456;2023-06-14T03:35:11;20.90;70.90
25918;DHT22;13899;51.174;4.456;2023-06-14T03:37:43;21.00;71.10
25918;DHT22;13899;51.174;4.456;2023-06-14T03:40:08;21.00;70.60
25918;DHT22;13899;51.174;4.456;2023-06-14T03:42:34;20.90;70.70
25918;DHT22;13899;51.174;4.456;2023-06-14T03:44:59;20.90;70.50
25918;DHT22;13899;51.174;4.456;2023-06-14T03:47:25;21.00;70.30
25918;DHT22;13899;51.174;4.456;2023-06-14T03:49:50;21.00;70.50
25918;DHT22;13899;51.174;4.456;2023-06-14T03:52:16;20.90;70.60
25918;DHT22;13899;51.174;4.456;2023-06-14T03:54:42;20.80;71.00
25918;DHT22;13899;51.174;4.456;2023-06-14T03:57:09;20.90;71.00
25918;DHT22;13899;51.174;4.456;2023-06-14T03:59:35;20.80;70.90
25918;DHT22;13899;51.174;4.456;2023-06-14T04:02:02;20.90;70.60
25918;DHT22;13899;51.174;4.456;2023-06-14T04:04:27;20.80;71.20
25918;DHT22;13899;51.174;4.456;2023-06-14T04:06:54;20.70;71.40
25918;DHT22;13899;51.174;4.456;2023-06-14T04:09:19;20.70;71.60
25918;DHT22;13899;51.174;4.456;2023-06-14T04:11:45;20.60;71.90
25918;DHT22;13899;51.174;4.456;2023-06-14T04:14:10;20.70;71.90
25918;DHT22;13899;51.174;4.456;2023-06-14T04:16:36;20.70;71.50
25918;DHT22;13899;51.174;4.456;2023-06-14T04:19:02;20.80;72.10
25918;DHT22;13899;51.174;4.456;2023-06-14T04:21:27;20.80;72.20
25918;DHT22;13899;51.174;4.456;2023-06-14T04:23:54;20.70;73.00
25918;DHT22;13899;51.174;4.456;2023-06-14T04:26:21;20.70;72.90
25918;DHT22;13899;51.174;4.456;2023-06-14T04:28:46;20.70;73.00
25918;DHT22;13899;51.174;4.456;2023-06-14T04:31:12;20.80;72.90
25918;DHT22;13899;51.174;4.456;2023-06-14T04:33:41;20.80;73.00
25918;DHT22;13899;51.174;4.456;2023-06-14T04:36:12;20.80;73.30
25918;DHT22;13899;51.174;4.456;2023-06-14T04:38:38;20.80;72.90
25918;DHT22;13899;51.174;4.456;2023-06-14T04:41:03;20.80;72.90
25918;DHT22;13899;51.174;4.456;2023-06-14T04:43:29;20.90;73.00
25918;DHT22;13899;51.174;4.456;2023-06-14T04:45:54;20.80;74.00
25918;DHT22;13899;51.174;4.456;2023-06-14T04:48:21;20.80;73.80
25918;DHT22;13899;51.174;4.456;2023-06-14T04:50:47;20.80;73.60
25918;DHT22;13899;51.174;4.456;2023-06-14T04:53:13;20.90;73.90
25918;DHT22;13899;51.174;4.456;2023-06-14T04:55:41;20.90;73.40
25918;DHT22;13899;51.174;4.456;2023-06-14T04:58:10;20.90;74.30
25918;DHT22;13899;51.174;4.456;2023-06-14T05:00:38;20.90;74.10
25918;DHT22;13899;51.174;4.456;2023-06-14T05:03:03;21.00;74.40
25918;DHT22;13899;51.174;4.456;2023-06-14T05:05:31;20.90;74.60
25918;DHT22;13899;51.174;4.456;2023-06-14T05:07:57;21.00;74.50
25918;DHT22;13899;51.174;4.456;2023-06-14T05:10:23;21.10;74.60
25918;DHT22;13899;51.174;4.456;2023-06-14T05:12:48;21.10;74.60
25918;DHT22;13899;51.174;4.456;2023-06-14T05:15:14;21.10;74.90
25918;DHT22;13899;51.174;4.456;2023-06-14T05:17:40;21.10;75.20
25918;DHT22;13899;51.174;4.456;2023-06-14T05:20:06;21.10;75.60
25918;DHT22;13899;51.174;4.456;2023-06-14T05:22:32;21.20;75.30
25918;DHT22;13899;51.174;4.456;2023-06-14T05:24:57;21.30;74.10
25918;DHT22;13899;51.174;4.456;2023-06-14T05:27:23;21.40;74.70
25918;DHT22;13899;51.174;4.456;2023-06-14T05:29:50;21.10;75.40
25918;DHT22;13899;51.174;4.456;2023-06-14T05:32:15;21.30;77.10
25918;DHT22;13899;51.174;4.456;2023-06-14T05:34:42;21.20;77.70
25918;DHT22;13899;51.174;4.456;2023-06-14T05:37:08;21.40;76.50
25918;DHT22;13899;51.174;4.456;2023-06-14T05:39:33;21.60;74.90
25918;DHT22;13899;51.174;4.456;2023-06-14T05:41:59;21.60;74.70
25918;DHT22;13899;51.174;4.456;2023-06-14T05:44:24;21.70;73.90
25918;DHT22;13899;51.174;4.456;2023-06-14T05:46:50;21.90;75.20
25918;DHT22;13899;51.174;4.456;2023-06-14T05:49:15;21.70;75.10
25918;DHT22;13899;51.174;4.456;2023-06-14T05:51:41;21.60;76.60
25918;DHT22;13899;51.174;4.456;2023-06-14T05:54:06;21.60;75.60
25918;DHT22;13899;51.174;4.456;2023-06-14T05:56:32;21.90;74.00
25918;DHT22;13899;51.174;4.456;2023-06-14T05:58:57;21.90;73.10
25918;DHT22;13899;51.174;4.456;2023-06-14T06:01:23;21.80;72.80
25918;DHT22;13899;51.174;4.456;2023-06-14T06:03:48;21.70;74.10
25918;DHT22;13899;51.174;4.456;2023-06-14T06:06:14;22.10;73.80
25918;DHT22;13899;51.174;4.456;2023-06-14T06:08:39;22.00;73.30
25918;DHT22;13899;51.174;4.456;2023-06-14T06:11:05;21.90;72.90
25918;DHT22;13899;51.174;4.456;2023-06-14T06:13:31;21.90;73.60
25918;DHT22;13899;51.174;4.456;2023-06-14T06:15:57;22.10;72.80
25918;DHT22;13899;51.174;4.456;2023-06-14T06:18:22;22.40;72.70
25918;DHT22;13899;51.174;4.456;2023-06-14T06:20:48;22.60;72.70
25918;DHT22;13899;51.174;4.456;2023-06-14T06:23:13;22.80;72.40
25918;DHT22;13899;51.174;4.456;2023-06-14T06:25:39;22.50;72.40
25918;DHT22;13899;51.174;4.456;2023-06-14T06:28:05;22.50;73.40
25918;DHT22;13899;51.174;4.456;2023-06-14T06:30:30;22.60;73.40
25918;DHT22;13899;51.174;4.456;2023-06-14T06:32:56;22.80;72.50
25918;DHT22;13899;51.174;4.456;2023-06-14T06:35:21;23.10;71.70
25918;DHT22;13899;51.174;4.456;2023-06-14T06:37:47;23.20;71.00
25918;DHT22;13899;51.174;4.456;2023-06-14T06:40:12;23.60;69.60
25918;DHT22;13899;51.174;4.456;2023-06-14T06:42:38;23.80;68.70
25918;DHT22;13899;51.174;4.456;2023-06-14T06:45:04;23.80;68.60
25918;DHT22;13899;51.174;4.456;2023-06-14T06:47:39;23.80;68.40
25918;DHT22;13899;51.174;4.456;2023-06-14T06:50:05;23.80;68.70
25918;DHT22;13899;51.174;4.456;2023-06-14T06:52:32;24.10;68.00
25918;DHT22;13899;51.174;4.456;2023-06-14T06:54:58;24.10;67.60
25918;DHT22;13899;51.174;4.456;2023-06-14T06:57:23;24.30;66.80
25918;DHT22;13899;51.174;4.456;2023-06-14T06:59:49;24.40;66.60
25918;DHT22;13899;51.174;4.456;2023-06-14T07:02:15;24.40;66.40
25918;DHT22;13899;51.174;4.456;2023-06-14T07:04:41;24.40;65.50
25918;DHT22;13899;51.174;4.456;2023-06-14T07:07:06;24.50;66.90
25918;DHT22;13899;51.174;4.456;2023-06-14T07:09:32;24.40;66.40
25918;DHT22;13899;51.174;4.456;2023-06-14T07:11:57;24.40;66.10
25918;DHT22;13899;51.174;4.456;2023-06-14T07:14:23;24.50;66.70
25918;DHT22;13899;51.174;4.456;2023-06-14T07:16:49;24.70;65.80
25918;DHT22;13899;51.174;4.456;2023-06-14T07:19:15;24.90;66.20
25918;DHT22;13899;51.174;4.456;2023-06-14T07:21:44;25.10;65.90
25918;DHT22;13899;51.174;4.456;2023-06-14T07:24:15;25.30;65.50
25918;DHT22;13899;51.174;4.456;2023-06-14T07:26:41;25.30;64.00
25918;DHT22;13899;51.174;4.456;2023-06-14T07:32:13;25.10;64.50
25918;DHT22;13899;51.174;4.456;2023-06-14T07:34:42;25.00;65.20
25918;DHT22;13899;51.174;4.456;2023-06-14T07:37:16;25.00;66.00
25918;DHT22;13899;51.174;4.456;2023-06-14T07:39:41;25.30;65.00
25918;DHT22;13899;51.174;4.456;2023-06-14T07:42:10;25.50;65.60
25918;DHT22;13899;51.174;4.456;2023-06-14T07:44:36;25.40;64.90
25918;DHT22;13899;51.174;4.456;2023-06-14T07:47:02;25.70;64.80
25918;DHT22;13899;51.174;4.456;2023-06-14T07:49:27;26.20;62.60
25918;DHT22;13899;51.174;4.456;2023-06-14T07:51:53;26.10;63.20
25918;DHT22;13899;51.174;4.456;2023-06-14T07:54:19;26.30;63.50
25918;DHT22;13899;51.174;4.456;2023-06-14T07:56:44;26.40;63.30
25918;DHT22;13899;51.174;4.456;2023-06-14T07:59:10;26.20;63.30
25918;DHT22;13899;51.174;4.456;2023-06-14T08:01:35;25.70;64.50
25918;DHT22;13899;51.174;4.456;2023-06-14T08:04:01;25.70;64.40
25918;DHT22;13899;51.174;4.456;2023-06-14T08:06:27;26.20;63.50
25918;DHT22;13899;51.174;4.456;2023-06-14T08:08:52;26.40;63.60
25918;DHT22;13899;51.174;4.456;2023-06-14T08:11:18;26.70;64.00
25918;DHT22;13899;51.174;4.456;2023-06-14T08:13:43;27.20;61.90
25918;DHT22;13899;51.174;4.456;2023-06-14T08:16:09;27.10;62.10
25918;DHT22;13899;51.174;4.456;2023-06-14T08:18:34;26.80;61.30
25918;DHT22;13899;51.174;4.456;2023-06-14T08:21:00;26.90;61.50
25918;DHT22;13899;51.174;4.456;2023-06-14T08:23:25;26.80;62.10
25918;DHT22;13899;51.174;4.456;2023-06-14T08:25:52;26.70;62.40
25918;DHT22;13899;51.174;4.456;2023-06-14T08:28:18;26.50;62.50
25918;DHT22;13899;51.174;4.456;2023-06-14T08:30:43;26.40;62.60
25918;DHT22;13899;51.174;4.456;2023-06-14T08:33:08;26.50;61.10
25918;DHT22;13899;51.174;4.456;2023-06-14T08:35:34;26.40;63.30
25918;DHT22;13899;51.174;4.456;2023-06-14T08:38:02;26.20;62.10
25918;DHT22;13899;51.174;4.456;2023-06-14T08:40:29;25.90;61.50
25918;DHT22;13899;51.174;4.456;2023-06-14T08:42:55;26.00;62.30
25918;DHT22;13899;51.174;4.456;2023-06-14T08:45:21;26.50;62.70
25918;DHT22;13899;51.174;4.456;2023-06-14T08:47:47;26.70;60.70
25918;DHT22;13899;51.174;4.456;2023-06-14T08:50:21;26.70;61.50
25918;DHT22;13899;51.174;4.456;2023-06-14T08:52:47;26.60;61.50
25918;DHT22;13899;51.174;4.456;2023-06-14T08:55:15;26.60;61.20
25918;DHT22;13899;51.174;4.456;2023-06-14T08:57:43;26.70;60.80
25918;DHT22;13899;51.174;4.456;2023-06-14T09:00:10;26.60;60.90
25918;DHT22;13899;51.174;4.456;2023-06-14T09:02:38;26.60;60.80
25918;DHT22;13899;51.174;4.456;2023-06-14T09:05:11;26.80;60.50
25918;DHT22;13899;51.174;4.456;2023-06-14T09:07:43;26.80;60.60
25918;DHT22;13899;51.174;4.456;2023-06-14T09:10:09;27.40;59.80
25918;DHT22;13899;51.174;4.456;2023-06-14T09:12:35;27.80;59.90
25918;DHT22;13899;51.174;4.456;2023-06-14T09:15:02;27.50;60.80
25918;DHT22;13899;51.174;4.456;2023-06-14T09:17:37;27.50;60.40
25918;DHT22;13899;51.174;4.456;2023-06-14T09:20:03;27.20;58.60
25918;DHT22;13899;51.174;4.456;2023-06-14T09:22:34;27.30;59.40
25918;DHT22;13899;51.174;4.456;2023-06-14T09:24:59;27.70;58.30
25918;DHT22;13899;51.174;4.456;2023-06-14T09:27:26;27.70;58.40
25918;DHT22;13899;51.174;4.456;2023-06-14T09:29:52;28.00;58.50
25918;DHT22;13899;51.174;4.456;2023-06-14T09:32:17;28.00;57.80
25918;DHT22;13899;51.174;4.456;2023-06-14T09:34:45;28.20;57.10
25918;DHT22;13899;51.174;4.456;2023-06-14T09:37:11;28.40;56.30
25918;DHT22;13899;51.174;4.456;2023-06-14T09:39:49;28.30;56.20
25918;DHT22;13899;51.174;4.456;2023-06-14T09:42:18;28.30;56.50
25918;DHT22;13899;51.174;4.456;2023-06-14T09:44:46;28.40;53.70
25918;DHT22;13899;51.174;4.456;2023-06-14T09:47:12;28.40;54.40
25918;DHT22;13899;51.174;4.456;2023-06-14T09:49:38;28.50;53.30
25918;DHT22;13899;51.174;4.456;2023-06-14T09:52:04;28.30;54.20
25918;DHT22;13899;51.174;4.456;2023-06-14T09:54:30;28.70;54.30
25918;DHT22;13899;51.174;4.456;2023-06-14T09:56:56;29.30;52.60
25918;DHT22;13899;51.174;4.456;2023-06-14T09:59:25;29.80;51.80
25918;DHT22;13899;51.174;4.456;2023-06-14T10:01:54;30.80;52.30
25918;DHT22;13899;51.174;4.456;2023-06-14T10:04:23;31.40;48.80
25918;DHT22;13899;51.174;4.456;2023-06-14T10:06:48;31.80;48.00
25918;DHT22;13899;51.174;4.456;2023-06-14T10:09:15;32.50;47.10
25918;DHT22;13899;51.174;4.456;2023-06-14T10:11:41;33.40;45.30
25918;DHT22;13899;51.174;4.456;2023-06-14T10:14:09;33.90;44.50
25918;DHT22;13899;51.174;4.456;2023-06-14T10:21:58;34.30;43.00
25918;DHT22;13899;51.174;4.456;2023-06-14T10:24:32;34.40;43.00
25918;DHT22;13899;51.174;4.456;2023-06-14T10:26:58;34.80;42.70
25918;DHT22;13899;51.174;4.456;2023-06-14T10:29:25;35.60;42.60
25918;DHT22;13899;51.174;4.456;2023-06-14T10:31:51;35.60;40.60
25918;DHT22;13899;51.174;4.456;2023-06-14T10:36:59;36.00;41.10
25918;DHT22;13899;51.174;4.456;2023-06-14T10:39:26;36.20;40.30
25918;DHT22;13899;51.174;4.456;2023-06-14T10:41:52;36.40;39.70
25918;DHT22;13899;51.174;4.456;2023-06-14T10:46:47;36.40;40.00
25918;DHT22;13899;51.174;4.456;2023-06-14T10:49:16;36.60;38.90
25918;DHT22;13899;51.174;4.456;2023-06-14T10:51:44;37.40;39.40
25918;DHT22;13899;51.174;4.456;2023-06-14T10:54:12;37.70;38.90
25918;DHT22;13899;51.174;4.456;2023-06-14T10:56:51;38.20;38.30
25918;DHT22;13899;51.174;4.456;2023-06-14T10:59:17;37.20;37.80
25918;DHT22;13899;51.174;4.456;2023-06-14T11:04:17;37.50;38.60
25918;DHT22;13899;51.174;4.456;2023-06-14T11:06:46;37.60;38.00
25918;DHT22;13899;51.174;4.456;2023-06-14T11:09:38;37.50;38.10
25918;DHT22;13899;51.174;4.456;2023-06-14T11:11:59;37.50;38.20
25918;DHT22;13899;51.174;4.456;2023-06-14T11:14:28;37.60;37.30
25918;DHT22;13899;51.174;4.456;2023-06-14T11:16:54;38.10;37.30
25918;DHT22;13899;51.174;4.456;2023-06-14T11:19:21;38.60;36.80
25918;DHT22;13899;51.174;4.456;2023-06-14T11:21:47;38.70;36.10
25918;DHT22;13899;51.174;4.456;2023-06-14T11:24:12;38.70;35.90
25918;DHT22;13899;51.174;4.456;2023-06-14T11:26:39;38.30;35.50
25918;DHT22;13899;51.174;4.456;2023-06-14T11:29:05;37.80;36.30
25918;DHT22;13899;51.174;4.456;2023-06-14T11:31:31;38.40;36.10
25918;DHT22;13899;51.174;4.456;2023-06-14T11:33:57;38.90;36.00
25918;DHT22;13899;51.174;4.456;2023-06-14T11:36:29;39.50;36.10
25918;DHT22;13899;51.174;4.456;2023-06-14T11:39:02;39.40;35.00
25918;DHT22;13899;51.174;4.456;2023-06-14T11:41:38;39.40;35.20
25918;DHT22;13899;51.174;4.456;2023-06-14T11:44:05;39.50;34.80
25918;DHT22;13899;51.174;4.456;2023-06-14T11:46:31;39.00;35.20
25918;DHT22;13899;51.174;4.456;2023-06-14T11:48:56;39.30;36.00
25918;DHT22;13899;51.174;4.456;2023-06-14T11:51:22;39.80;34.50
25918;DHT22;13899;51.174;4.456;2023-06-14T11:53:47;39.90;35.20
25918;DHT22;13899;51.174;4.456;2023-06-14T11:56:13;39.90;35.10
25918;DHT22;13899;51.174;4.456;2023-06-14T11:58:39;40.10;35.70
25918;DHT22;13899;51.174;4.456;2023-06-14T12:01:05;39.80;34.20
25918;DHT22;13899;51.174;4.456;2023-06-14T12:03:31;40.10;35.00
25918;DHT22;13899;51.174;4.456;2023-06-14T12:06:05;39.90;35.20
25918;DHT22;13899;51.174;4.456;2023-06-14T12:08:33;40.10;33.80
25918;DHT22;13899;51.174;4.456;2023-06-14T12:11:04;40.30;34.60
25918;DHT22;13899;51.174;4.456;2023-06-14T12:13:29;40.40;34.30
25918;DHT22;13899;51.174;4.456;2023-06-14T12:15:56;40.50;33.60
25918;DHT22;13899;51.174;4.456;2023-06-14T12:18:30;40.30;33.80
25918;DHT22;13899;51.174;4.456;2023-06-14T12:20:58;40.40;34.00
25918;DHT22;13899;51.174;4.456;2023-06-14T12:23:38;39.90;33.70
25918;DHT22;13899;51.174;4.456;2023-06-14T12:26:03;40.00;33.80
25918;DHT22;13899;51.174;4.456;2023-06-14T12:28:31;39.90;33.80
25918;DHT22;13899;51.174;4.456;2023-06-14T12:30:56;39.30;34.10
25918;DHT22;13899;51.174;4.456;2023-06-14T12:33:24;39.40;33.30
25918;DHT22;13899;51.174;4.456;2023-06-14T12:35:50;39.50;33.30
25918;DHT22;13899;51.174;4.456;2023-06-14T12:38:15;39.60;33.50
25918;DHT22;13899;51.174;4.456;2023-06-14T12:40:41;39.90;33.20
25918;DHT22;13899;51.174;4.456;2023-06-14T12:43:07;40.20;33.50
25918;DHT22;13899;51.174;4.456;2023-06-14T12:45:33;40.50;32.40
25918;DHT22;13899;51.174;4.456;2023-06-14T12:47:58;40.60;32.80
25918;DHT22;13899;51.174;4.456;2023-06-14T12:50:24;40.70;32.50
25918;DHT22;13899;51.174;4.456;2023-06-14T12:52:49;41.00;32.00
25918;DHT22;13899;51.174;4.456;2023-06-14T12:55:15;41.30;31.40
25918;DHT22;13899;51.174;4.456;2023-06-14T12:57:41;41.40;31.40
25918;DHT22;13899;51.174;4.456;2023-06-14T13:00:06;41.70;31.10
25918;DHT22;13899;51.174;4.456;2023-06-14T13:02:32;41.40;31.70
25918;DHT22;13899;51.174;4.456;2023-06-14T13:04:58;40.90;31.60
25918;DHT22;13899;51.174;4.456;2023-06-14T13:07:24;40.90;31.50
25918;DHT22;13899;51.174;4.456;2023-06-14T13:09:50;40.60;31.20
25918;DHT22;13899;51.174;4.456;2023-06-14T13:12:15;41.00;30.70
25918;DHT22;13899;51.174;4.456;2023-06-14T13:14:41;40.70;30.90
25918;DHT22;13899;51.174;4.456;2023-06-14T13:17:11;40.30;31.50
25918;DHT22;13899;51.174;4.456;2023-06-14T13:19:37;40.40;31.70
25918;DHT22;13899;51.174;4.456;2023-06-14T13:22:02;40.90;31.00
25918;DHT22;13899;51.174;4.456;2023-06-14T13:24:28;41.00;30.50
25918;DHT22;13899;51.174;4.456;2023-06-14T13:26:55;41.00;30.70
25918;DHT22;13899;51.174;4.456;2023-06-14T13:29:23;41.60;30.80
25918;DHT22;13899;51.174;4.456;2023-06-14T13:31:48;42.10;30.40
25918;DHT22;13899;51.174;4.456;2023-06-14T13:34:15;41.50;30.40
25918;DHT22;13899;51.174;4.456;2023-06-14T13:36:41;41.60;30.80
25918;DHT22;13899;51.174;4.456;2023-06-14T13:39:06;41.30;30.50
25918;DHT22;13899;51.174;4.456;2023-06-14T13:41:32;41.80;30.30
25918;DHT22;13899;51.174;4.456;2023-06-14T13:44:00;42.00;30.70
25918;DHT22;13899;51.174;4.456;2023-06-14T13:46:25;42.00;30.00
25918;DHT22;13899;51.174;4.456;2023-06-14T13:48:51;42.10;30.00
25918;DHT22;13899;51.174;4.456;2023-06-14T13:51:18;42.60;30.40
25918;DHT22;13899;51.174;4.456;2023-06-14T13:53:48;42.80;30.00
25918;DHT22;13899;51.174;4.456;2023-06-14T13:56:14;42.90;30.00
25918;DHT22;13899;51.174;4.456;2023-06-14T13:58:40;43.00;29.70
25918;DHT22;13899;51.174;4.456;2023-06-14T14:01:05;43.30;29.40
25918;DHT22;13899;51.174;4.456;2023-06-14T14:03:31;43.00;29.90
25918;DHT22;13899;51.174;4.456;2023-06-14T14:05:57;42.90;29.80
25918;DHT22;13899;51.174;4.456;2023-06-14T14:08:24;43.30;29.80
25918;DHT22;13899;51.174;4.456;2023-06-14T14:10:53;43.60;29.70
25918;DHT22;13899;51.174;4.456;2023-06-14T14:13:18;43.40;29.70
25918;DHT22;13899;51.174;4.456;2023-06-14T14:15:44;43.10;29.60
25918;DHT22;13899;51.174;4.456;2023-06-14T14:18:10;43.10;30.10
25918;DHT22;13899;51.174;4.456;2023-06-14T14:20:35;41.70;30.30
25918;DHT22;13899;51.174;4.456;2023-06-14T14:23:01;41.40;30.30
25918;DHT22;13899;51.174;4.456;2023-06-14T14:25:28;41.80;30.80
25918;DHT22;13899;51.174;4.456;2023-06-14T14:27:53;42.40;30.00
25918;DHT22;13899;51.174;4.456;2023-06-14T14:30:19;43.00;29.90
25918;DHT22;13899;51.174;4.456;2023-06-14T14:32:51;43.60;29.70
25918;DHT22;13899;51.174;4.456;2023-06-14T14:35:17;43.10;29.40
25918;DHT22;13899;51.174;4.456;2023-06-14T14:37:43;42.50;29.80
25918;DHT22;13899;51.174;4.456;2023-06-14T14:40:09;42.80;29.80
25918;DHT22;13899;51.174;4.456;2023-06-14T14:42:35;43.10;29.50
25918;DHT22;13899;51.174;4.456;2023-06-14T14:45:01;43.40;29.80
25918;DHT22;13899;51.174;4.456;2023-06-14T14:47:29;43.60;29.50
25918;DHT22;13899;51.174;4.456;2023-06-14T14:49:55;43.40;29.90
25918;DHT22;13899;51.174;4.456;2023-06-14T14:52:21;43.30;29.50
25918;DHT22;13899;51.174;4.456;2023-06-14T14:54:47;43.30;29.80
25918;DHT22;13899;51.174;4.456;2023-06-14T14:57:12;42.10;29.40
25918;DHT22;13899;51.174;4.456;2023-06-14T14:59:38;41.00;29.70
25918;DHT22;13899;51.174;4.456;2023-06-14T15:02:04;40.00;30.50
25918;DHT22;13899;51.174;4.456;2023-06-14T15:04:29;39.10;30.60
25918;DHT22;13899;51.174;4.456;2023-06-14T15:06:55;38.40;31.40
25918;DHT22;13899;51.174;4.456;2023-06-14T15:09:20;37.60;31.70
25918;DHT22;13899;51.174;4.456;2023-06-14T15:11:46;37.20;32.20
25918;DHT22;13899;51.174;4.456;2023-06-14T15:14:12;37.10;32.30
25918;DHT22;13899;51.174;4.456;2023-06-14T15:16:37;36.60;32.90
25918;DHT22;13899;51.174;4.456;2023-06-14T15:19:03;36.40;32.00
25918;DHT22;13899;51.174;4.456;2023-06-14T15:21:29;36.10;32.70
25918;DHT22;13899;51.174;4.456;2023-06-14T15:23:55;35.90;33.80
25918;DHT22;13899;51.174;4.456;2023-06-14T15:26:21;35.90;33.80
25918;DHT22;13899;51.174;4.456;2023-06-14T15:28:49;35.80;34.10
25918;DHT22;13899;51.174;4.456;2023-06-14T15:31:16;35.00;34.30
25918;DHT22;13899;51.174;4.456;2023-06-14T15:33:43;34.30;34.60
25918;DHT22;13899;51.174;4.456;2023-06-14T15:36:09;33.70;34.40
25918;DHT22;13899;51.174;4.456;2023-06-14T15:38:38;33.10;35.60
25918;DHT22;13899;51.174;4.456;2023-06-14T15:41:09;33.30;35.80